createdAt,value
2022-10-11T00:00:53.533Z,84.88
2022-10-11T00:03:22.006Z,84.61
2022-10-11T00:05:49.948Z,83.58
2022-10-11T00:08:18.475Z,82.80
2022-10-11T00:10:57.783Z,82.39
2022-10-11T00:13:25.777Z,82.15
2022-10-11T00:15:53.713Z,82.75
2022-10-11T00:18:21.764Z,83.89
2022-10-11T00:20:50.401Z,84.39
2022-10-11T00:23:18.760Z,84.88
2022-10-11T00:25:57.961Z,85.34
2022-10-11T00:28:26.010Z,85.36
2022-10-11T00:30:54.114Z,86.67
2022-10-11T00:33:22.060Z,88.44
2022-10-11T00:35:50.080Z,87.84
2022-10-11T00:38:18.666Z,87.38
2022-10-11T00:40:47.929Z,88.88
2022-10-11T00:43:17.842Z,88.91
2022-10-11T00:46:01.795Z,88.78
2022-10-11T00:48:37.525Z,88.79
2022-10-11T00:51:11.400Z,88.59
2022-10-11T00:53:39.571Z,88.44
2022-10-11T00:56:15.732Z,88.56
2022-10-11T00:58:44.193Z,88.45
2022-10-11T01:01:12.363Z,90.38
2022-10-11T01:03:41.847Z,90.91
2022-10-11T01:06:10.277Z,90.79
2022-10-11T01:08:39.555Z,90.00
2022-10-11T01:11:13.412Z,89.36
2022-10-11T01:13:53.838Z,88.97
2022-10-11T01:16:30.064Z,89.30
2022-10-11T01:19:22.562Z,88.77
2022-10-11T01:21:58.818Z,88.96
2022-10-11T01:24:52.128Z,90.02
2022-10-11T01:27:45.463Z,89.03
2022-10-11T01:30:36.325Z,90.45
2022-10-11T01:33:25.906Z,90.75
2022-10-11T01:36:05.158Z,89.88
2022-10-11T01:38:38.963Z,88.85
2022-10-11T01:41:11.299Z,88.43
2022-10-11T01:43:42.081Z,88.63
2022-10-11T01:46:12.214Z,88.66
2022-10-11T01:48:59.052Z,88.03
2022-10-11T01:51:32.316Z,88.78
2022-10-11T01:54:22.762Z,89.67
2022-10-11T01:57:09.402Z,90.79
2022-10-11T01:59:49.226Z,90.90
2022-10-11T02:02:32.096Z,90.19
2022-10-11T02:05:07.210Z,89.90
2022-10-11T02:07:41.940Z,89.34
2022-10-11T02:10:16.683Z,90.25
2022-10-11T02:12:48.897Z,90.67
2022-10-11T02:15:19.509Z,89.38
2022-10-11T02:17:53.849Z,88.56
2022-10-11T02:20:26.025Z,87.95
2022-10-11T02:23:00.385Z,88.69
2022-10-11T02:25:31.777Z,89.26
2022-10-11T02:28:03.661Z,89.73
2022-10-11T02:30:32.297Z,91.31
2022-10-11T02:33:05.129Z,91.76
2022-10-11T02:35:38.281Z,91.33
2022-10-11T02:38:14.744Z,91.93
2022-10-11T02:40:47.921Z,94.15
2022-10-11T02:43:24.042Z,96.29
2022-10-11T02:45:55.979Z,97.24
2022-10-11T02:48:27.590Z,97.41
2022-10-11T02:50:56.781Z,97.13
2022-10-11T02:53:26.245Z,95.85
2022-10-11T02:55:55.957Z,95.22
2022-10-11T02:58:25.442Z,95.00
2022-10-11T03:00:53.630Z,94.16
2022-10-11T03:03:21.916Z,94.07
2022-10-11T03:05:51.201Z,93.83
2022-10-11T03:08:19.246Z,93.31
2022-10-11T03:10:47.230Z,93.27
2022-10-11T03:13:18.243Z,93.65
2022-10-11T03:16:00.725Z,94.77
2022-10-11T03:18:30.911Z,94.05
2022-10-11T03:21:00.218Z,94.10
2022-10-11T03:23:28.177Z,94.00
2022-10-11T03:25:56.088Z,95.04
2022-10-11T03:28:24.023Z,95.17
2022-10-11T03:30:52.554Z,95.02
2022-10-11T03:33:20.995Z,95.66
2022-10-11T03:35:50.145Z,96.16
2022-10-11T03:38:22.138Z,96.14
2022-10-11T03:40:50.172Z,96.30
2022-10-11T03:43:18.410Z,96.16
2022-10-11T03:45:46.373Z,96.17
2022-10-11T03:48:14.408Z,95.51
2022-10-11T03:50:42.338Z,95.79
2022-10-11T03:53:10.463Z,95.53
2022-10-11T03:55:41.505Z,94.83
2022-10-11T03:58:09.842Z,94.54
2022-10-11T04:00:38.625Z,94.48
2022-10-11T04:03:06.635Z,94.25
2022-10-11T04:05:34.553Z,93.89
2022-10-11T04:08:02.491Z,93.07
2022-10-11T04:10:31.575Z,93.51
2022-10-11T04:13:01.033Z,93.78
2022-10-11T04:15:28.965Z,97.60
2022-10-11T04:17:56.884Z,96.05
2022-10-11T04:20:24.982Z,95.70
2022-10-11T04:22:52.881Z,94.96
2022-10-11T04:25:20.798Z,94.77
2022-10-11T04:27:48.743Z,94.85
2022-10-11T04:30:18.309Z,94.18
2022-10-11T04:32:46.272Z,93.85
2022-10-11T04:35:14.447Z,93.55
2022-10-11T04:37:42.371Z,93.16
2022-10-11T04:40:11.620Z,93.58
2022-10-11T04:42:39.555Z,93.90
2022-10-11T04:45:09.490Z,94.41
2022-10-11T04:47:40.521Z,94.32
2022-10-11T04:50:08.867Z,93.56
2022-10-11T04:52:36.833Z,93.80
2022-10-11T04:55:05.143Z,93.67
2022-10-11T04:57:33.063Z,93.58
2022-10-11T05:00:00.993Z,93.86
2022-10-11T05:02:28.993Z,94.07
2022-10-11T05:04:58.597Z,93.95
2022-10-11T05:07:26.519Z,94.27
2022-10-11T05:09:54.702Z,95.20
2022-10-11T05:12:22.666Z,95.20
2022-10-11T05:14:50.612Z,95.63
2022-10-11T05:17:18.670Z,95.84
2022-10-11T05:19:46.608Z,94.55
2022-10-11T05:22:15.902Z,93.79
2022-10-11T05:24:44.036Z,93.59
2022-10-11T05:27:11.941Z,94.11
2022-10-11T05:29:39.878Z,94.72
2022-10-11T05:32:07.895Z,95.02
2022-10-11T05:34:35.818Z,95.76
2022-10-11T13:10:34.210Z,68.83
2022-10-11T13:13:04.666Z,69.50
2022-10-11T13:15:33.213Z,67.47
2022-10-11T13:18:01.949Z,66.71
2022-10-11T13:20:32.406Z,66.76
2022-10-11T13:23:00.686Z,68.69
2022-10-11T13:25:37.936Z,69.69
2022-10-11T13:28:10.292Z,71.94
2022-10-11T13:30:40.141Z,70.89
2022-10-11T13:33:14.954Z,69.51
2022-10-11T13:35:43.122Z,71.17
2022-10-11T13:38:22.591Z,69.00
2022-10-11T13:40:52.455Z,68.15
2022-10-11T13:43:24.780Z,68.95
2022-10-11T13:45:54.024Z,71.50
2022-10-11T13:48:22.669Z,72.36
2022-10-11T13:51:09.366Z,72.08
2022-10-11T13:53:37.439Z,71.72
2022-10-11T13:56:09.754Z,72.66
2022-10-11T13:58:40.750Z,72.97
2022-10-11T14:01:20.196Z,72.36
2022-10-11T14:03:53.344Z,73.15
2022-10-11T14:06:21.645Z,73.17
2022-10-11T14:08:53.187Z,73.08
2022-10-11T14:11:36.256Z,74.57
2022-10-11T14:14:37.370Z,74.25
2022-10-11T14:17:07.502Z,74.37
2022-10-11T14:19:35.783Z,74.66
2022-10-11T14:22:07.486Z,74.84
2022-10-11T14:24:35.695Z,75.71
2022-10-11T14:27:07.482Z,75.80
2022-10-11T14:29:39.206Z,75.68
2022-10-11T14:32:09.810Z,75.49
2022-10-11T14:34:38.481Z,75.75
2022-10-11T14:37:06.867Z,75.81
2022-10-11T14:39:35.189Z,76.18
2022-10-11T14:42:05.428Z,76.76
2022-10-11T14:44:33.476Z,77.31
2022-10-11T14:47:02.708Z,78.22
2022-10-11T14:49:31.913Z,79.01
2022-10-11T14:52:00.665Z,79.54
2022-10-11T14:54:30.502Z,79.50
2022-10-11T14:57:01.015Z,79.79
2022-10-11T14:59:34.973Z,80.12
2022-10-11T15:02:03.465Z,80.20
2022-10-11T15:04:31.520Z,80.36
2022-10-11T15:06:59.701Z,80.18
2022-10-11T15:09:27.960Z,79.82
2022-10-11T15:11:56.401Z,79.51
2022-10-11T15:14:25.342Z,79.73
2022-10-11T15:16:56.313Z,79.76
2022-10-11T15:19:26.671Z,79.97
2022-10-11T15:21:54.781Z,79.38
2022-10-11T15:24:23.206Z,79.73
2022-10-11T15:26:51.495Z,79.83
2022-10-11T15:29:22.061Z,80.24
2022-10-11T15:31:51.144Z,80.60
2022-10-11T15:34:20.666Z,80.84
2022-10-11T15:36:50.097Z,81.53
2022-10-11T15:39:26.353Z,81.19
2022-10-11T15:41:55.165Z,80.86
2022-10-11T15:44:23.443Z,81.38
2022-10-11T15:46:51.647Z,81.75
2022-10-11T15:49:21.149Z,81.81
2022-10-11T15:51:49.211Z,81.80
2022-10-11T15:54:17.276Z,82.06
2022-10-11T15:56:45.567Z,82.10
2022-10-11T15:59:13.938Z,82.00
2022-10-11T16:01:42.173Z,81.30
2022-10-11T16:04:11.207Z,80.85
2022-10-11T16:06:41.192Z,80.96
2022-10-11T16:09:09.229Z,81.63
2022-10-11T16:11:37.300Z,82.00
2022-10-11T16:14:06.168Z,82.63
2022-10-11T16:16:34.242Z,82.76
2022-10-11T16:19:02.290Z,82.87
2022-10-11T16:21:30.334Z,84.11
2022-10-11T16:23:59.826Z,84.12
2022-10-11T16:26:28.226Z,84.00
2022-10-11T16:28:57.028Z,83.98
2022-10-11T16:31:25.301Z,84.08
2022-10-11T16:33:54.194Z,84.79
2022-10-11T16:36:48.890Z,84.81
2022-10-11T16:39:20.370Z,84.22
2022-10-11T16:41:49.657Z,85.17
2022-10-11T16:44:19.781Z,85.85
2022-10-11T16:46:50.176Z,85.75
2022-10-11T16:49:20.834Z,85.73
2022-10-11T16:51:49.533Z,86.25
2022-10-11T16:54:20.750Z,86.30
2022-10-11T16:56:49.613Z,86.24
2022-10-11T16:59:19.142Z,86.25
2022-10-11T17:01:47.841Z,86.35
2022-10-11T17:04:17.014Z,86.31
2022-10-11T17:06:45.667Z,86.57
2022-10-11T17:09:14.808Z,86.13
2022-10-11T17:11:44.978Z,85.33
2022-10-11T17:14:14.085Z,85.72
2022-10-11T17:16:42.530Z,85.74
2022-10-11T17:19:12.958Z,85.89
2022-10-11T17:21:42.120Z,86.60
2022-10-11T17:24:10.384Z,87.17
2022-10-11T17:26:38.601Z,87.08
2022-10-11T17:29:08.327Z,86.60
2022-10-11T17:31:38.579Z,86.70
2022-10-11T17:34:06.665Z,86.69
2022-10-11T17:36:35.665Z,86.91
2022-10-11T17:39:07.820Z,86.66
2022-10-11T17:41:36.173Z,86.92
2022-10-11T17:44:04.856Z,87.11
2022-10-11T17:46:34.421Z,87.19
2022-10-11T17:49:04.911Z,87.09
2022-10-11T17:51:33.851Z,87.06
2022-10-11T17:54:02.113Z,86.83
2022-10-11T17:56:36.609Z,86.79
2022-10-11T17:59:05.957Z,86.97
2022-10-11T18:01:36.076Z,86.89
2022-10-11T18:04:06.180Z,86.80
2022-10-11T18:06:39.957Z,87.42
2022-10-11T18:09:08.893Z,86.89
2022-10-11T18:11:37.054Z,87.53
2022-10-11T18:14:05.757Z,88.09
2022-10-11T18:16:36.544Z,87.91
2022-10-11T18:19:06.585Z,87.91
2022-10-11T18:21:35.265Z,87.70
2022-10-11T18:24:05.080Z,87.88
2022-10-11T18:26:33.477Z,88.29
2022-10-11T18:29:02.174Z,88.20
2022-10-11T18:31:34.017Z,88.62
2022-10-11T18:34:04.526Z,88.37
2022-10-11T18:36:33.426Z,88.94
2022-10-11T18:39:03.214Z,89.55
2022-10-11T18:41:33.157Z,89.57
2022-10-11T18:44:03.211Z,89.56
2022-10-11T18:46:31.770Z,89.53
2022-10-11T18:49:01.893Z,89.53
2022-10-11T18:51:33.883Z,89.59
2022-10-11T18:54:03.102Z,88.64
2022-10-11T18:56:33.259Z,88.07
2022-10-11T18:59:01.710Z,87.75
2022-10-11T19:01:31.831Z,88.47
2022-10-11T19:04:01.577Z,88.91
2022-10-11T19:06:34.271Z,89.40
2022-10-11T19:09:05.418Z,89.42
2022-10-11T19:11:33.991Z,89.19
2022-10-11T19:14:06.509Z,89.21
2022-10-11T19:16:37.690Z,89.61
2022-10-11T19:19:06.761Z,89.92
2022-10-11T19:21:36.638Z,90.15
2022-10-11T19:24:05.324Z,90.27
2022-10-11T19:26:35.521Z,90.12
2022-10-11T19:29:06.174Z,90.97
2022-10-11T19:31:36.611Z,91.18
2022-10-11T19:34:04.903Z,90.40
2022-10-11T19:36:36.633Z,90.32
2022-10-11T19:39:07.554Z,90.25
2022-10-11T19:41:35.648Z,90.06
2022-10-11T19:44:03.713Z,89.75
2022-10-11T19:46:50.435Z,89.79
2022-10-11T19:49:22.767Z,90.39
2022-10-11T19:51:51.328Z,90.86
2022-10-11T19:54:20.741Z,90.48
2022-10-11T19:56:49.098Z,90.33
2022-10-11T19:59:17.432Z,90.49
2022-10-11T20:01:51.028Z,89.90
2022-10-11T20:04:50.631Z,89.13
2022-10-11T20:07:08.213Z,86.50
2022-10-11T20:09:38.032Z,84.42
2022-10-11T20:12:06.459Z,83.71
2022-10-11T20:14:34.399Z,82.01
2022-10-11T20:17:02.403Z,81.72
2022-10-11T20:19:31.634Z,81.53
2022-10-11T20:22:00.471Z,82.13
2022-10-11T20:24:32.955Z,81.89
2022-10-11T20:27:04.121Z,82.06
2022-10-11T20:29:32.275Z,82.05
2022-10-11T20:32:00.333Z,81.86
2022-10-11T20:34:28.929Z,82.72
2022-10-11T20:36:56.969Z,83.90
2022-10-11T20:39:25.526Z,83.63
2022-10-11T20:41:53.606Z,83.33
2022-10-11T20:44:23.188Z,84.87
2022-10-11T20:46:51.381Z,84.41
2022-10-11T20:49:20.864Z,83.40
2022-10-11T20:51:48.976Z,81.97
2022-10-11T20:54:17.293Z,81.89
2022-10-11T20:56:45.413Z,83.60
2022-10-11T20:59:13.427Z,83.36
2022-10-11T21:01:43.194Z,81.42
2022-10-11T21:04:17.881Z,80.93
2022-10-11T21:06:45.834Z,80.73
2022-10-11T21:09:16.412Z,82.02
2022-10-11T21:11:45.000Z,81.82
2022-10-11T21:14:13.102Z,82.15
2022-10-11T21:16:42.882Z,83.49
2022-10-11T21:19:14.803Z,82.38
2022-10-11T21:21:43.253Z,82.07
2022-10-11T21:24:11.394Z,83.10
2022-10-11T21:26:39.427Z,84.07
2022-10-11T21:29:08.607Z,84.28
2022-10-11T21:31:36.718Z,84.50
2022-10-11T21:34:07.516Z,85.18
2022-10-11T21:36:35.950Z,85.40
2022-10-11T21:39:04.450Z,85.15
2022-10-11T21:41:34.122Z,85.60
2022-10-11T21:44:02.669Z,86.66
2022-10-11T21:49:22.195Z,86.97
2022-10-11T21:51:50.296Z,86.27
2022-10-11T21:54:18.701Z,86.02
2022-10-11T21:56:46.770Z,86.02
2022-10-11T21:59:15.302Z,84.81
2022-10-11T22:01:44.205Z,84.35
2022-10-11T22:04:13.082Z,84.16
2022-10-11T22:06:42.441Z,84.76
2022-10-11T22:09:10.764Z,85.70
2022-10-11T22:11:39.232Z,86.08
2022-10-11T22:14:07.902Z,85.50
2022-10-11T22:16:36.352Z,86.04
2022-10-11T22:19:05.078Z,86.32
2022-10-11T22:21:33.247Z,86.26
2022-10-11T22:24:03.058Z,86.66
2022-10-11T22:26:32.094Z,86.23
2022-10-11T22:29:00.699Z,83.95
2022-10-11T22:31:29.818Z,82.95
2022-10-11T22:33:59.447Z,83.16
2022-10-11T22:36:27.946Z,82.51
2022-10-11T22:38:56.046Z,82.21
2022-10-11T22:41:25.578Z,81.99
2022-10-11T22:43:53.672Z,81.70
2022-10-11T22:46:21.715Z,82.13
2022-10-11T22:48:49.805Z,82.01
2022-10-11T22:51:18.017Z,82.97
2022-10-11T22:53:45.970Z,82.35
2022-10-11T22:56:14.205Z,82.69
2022-10-11T22:58:43.499Z,82.28
2022-10-11T23:01:13.897Z,82.08
2022-10-11T23:03:42.263Z,82.98
2022-10-11T23:06:10.747Z,83.58
2022-10-11T23:08:39.082Z,83.43
2022-10-11T23:11:08.266Z,83.77
2022-10-11T23:13:36.549Z,84.98
2022-10-11T23:16:09.925Z,85.20
2022-10-11T23:18:38.778Z,84.20
2022-10-11T23:21:07.705Z,84.80
2022-10-11T23:23:35.855Z,84.80
2022-10-11T23:26:05.602Z,84.93
2022-10-11T23:28:34.009Z,85.84
2022-10-11T23:31:02.313Z,85.82
2022-10-11T23:33:32.223Z,85.67
2022-10-11T23:36:00.205Z,85.59
2022-10-11T23:38:28.265Z,86.19
2022-10-11T23:40:56.277Z,86.24
2022-10-11T23:43:24.503Z,85.77
2022-10-11T23:45:54.211Z,85.76
2022-10-11T23:48:22.273Z,86.51
2022-10-11T23:50:51.815Z,86.79
2022-10-11T23:53:19.882Z,87.55
2022-10-11T23:55:47.946Z,87.51
2022-10-11T23:58:16.055Z,86.94
